Nearby METAR Reports

 

KSJC - San Jose, California, USA
Distance from station: NE 14km
Updated: 25/05/2024 11:53
Mostly cloudy
Mostly cloudy
 Wind from WNW
Wind: WNW 11 km/h
Temperature: 18°C
Dew Point: 9°C
Humidity: 56%
Barometer: 1017.3 hPa
Clouds: Mostly cloudy
Visibility: 16 km
Cloud details: Mostly cloudy 1006 m
2024/05/25 18:53 KSJC 251853Z 30006KT 10SM BKN033 18/09 A3004 RMK AO2 SLP171 T01780089
KNUQ - Moffett Nas/Mtn, California, USA
Distance from station: N 14km
Updated: 25/05/2024 12:10
Overcast
Overcast
 Wind from varies
Wind: varies 7 km/h, Gust: 20 km/h
Temperature: 17°C
Dew Point: 9°C
Humidity: 59%
Barometer: 1017.6 hPa
Clouds: Overcast
Visibility: 16 km
Cloud details: Overcast 914 m
2024/05/25 19:10 KNUQ 251910Z AUTO VRB04G11KT 10SM OVC030 17/09 A3005 RMK AO2
 
KPAO - Palo Alto, California, USA
Distance from station: NNW 23km
Updated: 25/05/2024 11:47
Mostly cloudy
Mostly cloudy
 Wind from W
Wind: W 20 km/h
Temperature: 16°C
Dew Point: 9°C
Humidity: 63%
Barometer: 1017.6 hPa
Clouds: Mostly cloudy
Visibility: 16 km
Cloud details: Mostly cloudy 914 m
2024/05/25 18:47 KPAO 251847Z 27011KT 10SM BKN030 16/09 A3005
KRHV - San Jose/Reid, California, USA
Distance from station: ENE 19km
Updated: 25/05/2024 11:47
Mostly cloudy
Mostly cloudy
 Wind from SW
Wind: SW 11 km/h
Temperature: 15°C
Dew Point: 8°C
Humidity: 63%
Barometer: 1017.6 hPa
Clouds: Mostly cloudy
Visibility: 16 km
Cloud details: Mostly cloudy 914 m
2024/05/25 18:47 KRHV 251847Z 22006KT 10SM BKN030 15/08 A3005 RMK LAST WIND VELOCITY AND DIRECTION ESTIMATED DUE TO EQUIPMENT OUTAGE
 
KOAK - Oakland, California, USA
Distance from station: NNW 50km
Updated: 25/05/2024 11:53
Mostly cloudy
Mostly cloudy
 Wind from W
Wind: W 19 km/h
Temperature: 13°C
Dew Point: 10°C
Humidity: 82%
Barometer: 1017.6 hPa
Clouds: Mostly cloudy
Visibility: 16 km
Cloud details: Mostly cloudy 335 m
Mostly cloudy 457 m
2024/05/25 18:53 KOAK 251853Z 26010KT 10SM BKN011 BKN015 13/10 A3005 RMK AO2 SLP176 T01330100
KSQL - San Carlos Airpo, California, USA
Distance from station: NW 34km
Updated: 25/05/2024 11:50
Partly cloudy
Partly cloudy
 Wind from SW
Wind: SW 20 km/h
Temperature: 16°C
Dew Point: 10°C
Humidity: 68%
Barometer: 1017.9 hPa
Clouds: Partly cloudy
Visibility: 16 km
Cloud details: Partly cloudy 762 m
2024/05/25 18:50 KSQL 251850Z 23011KT 10SM SCT025 16/10 A3006
 
KSFO - San Francisco, California, USA
Distance from station: NW 49km
Updated: 25/05/2024 11:56
Mostly cloudy
Mostly cloudy
 Wind from W
Wind: W 24 km/h, Gust: 37 km/h
Temperature: 14°C
Dew Point: 9°C
Humidity: 72%
Barometer: 1017.6 hPa
Clouds: Mostly cloudy
Visibility: 16 km
Cloud details: Few Clouds 244 m
Mostly cloudy 366 m
Mostly cloudy 549 m
2024/05/25 18:56 KSFO 251856Z 27013G20KT 10SM FEW008 BKN012 BKN018 14/09 A3005 RMK AO2 SLP175 T01440094
KE16 - San Martin, California, USA
Distance from station: ESE 43km
Updated: 25/05/2024 12:15
Overcast
Overcast
 Wind from SSW
Wind: SSW 11 km/h
Temperature: 17°C
Dew Point: 10°C
Humidity: 64%
Barometer: 1017.9 hPa
Clouds: Overcast
Visibility: 16 km
Cloud details: Overcast 914 m
2024/05/25 19:15 KE16 251915Z AUTO 20006KT 10SM OVC030 17/10 A3006 RMK AO2
 
KWVI - Watsonville, California, USA
Distance from station: SSE 44km
Updated: 25/05/2024 11:53
Overcast
Overcast
 Wind from W
Wind: W 20 km/h
Temperature: 17°C
Dew Point: 12°C
Humidity: 73%
Barometer: 1017.6 hPa
Clouds: Overcast
Visibility: 16 km
Cloud details: Few Clouds 518 m
Partly cloudy 792 m
Overcast 1067 m
2024/05/25 18:53 KWVI 251853Z AUTO 26011KT 10SM FEW017 SCT026 OVC035 17/12 A3005 RMK AO2 SLP177 T01720117
KHAF - Half Moon Bay, California, USA
Distance from station: WNW 50km
Updated: 25/05/2024 12:15
Mist, Overcast
Mist, Overcast
 Wind from WNW
Wind: WNW 17 km/h
Temperature: 14°C
Dew Point: 12°C
Humidity: 88%
Barometer: 1018.3 hPa
Summary: Mist
Clouds: Overcast
Visibility: 10 km
Cloud details: Overcast 427 m
2024/05/25 19:15 KHAF 251915Z AUTO 30009KT 6SM BR OVC014 14/12 A3007 RMK AO2
 
KHWD - Hayward, California, USA
Distance from station: N 44km
Updated: 25/05/2024 11:54
Mostly cloudy
Mostly cloudy
 Wind from W
Wind: W 26 km/h
Temperature: 16°C
Dew Point: 10°C
Humidity: 68%
Barometer: 1017.6 hPa
Clouds: Mostly cloudy
Visibility: 16 km
Cloud details: Mostly cloudy 427 m
Mostly cloudy 671 m
2024/05/25 18:54 KHWD 251854Z 26014KT 10SM BKN014 BKN022 16/10 A3005 RMK AO2 SLP184 T01610100
KLVK - Livermore, California, USA
Distance from station: NNE 51km
Updated: 25/05/2024 12:09
Overcast
Overcast
 Wind from WSW
Wind: WSW 19 km/h, Gust: 31 km/h
Temperature: 16°C
Dew Point: 9°C
Humidity: 63%
Barometer: 1016.9 hPa
Clouds: Overcast
Visibility: 16 km
Cloud details: Mostly cloudy 732 m
Overcast 945 m
2024/05/25 19:09 KLVK 251909Z 24010G17KT 10SM BKN024 OVC031 16/09 A3003 RMK AO2 T01610094